Time;durP1;ratioP1;P1;durP2;ratioP2;P2;SDS_P1;SDS_P2;PMS_P1;PMS_P2;Temp;Humidity;BMP_temperature;BMP_pressure;BME280_temperature;BME280_humidity;BME280_pressure;Samples;Min_cycle;Max_cycle;Signal;HPM_P1;HPM_P2
2023/02/21 02:14:58;;;;;;;;;28.25;27.50;;;;;9.10;63.91;101446.03;5095916;27;45878;-74
2023/02/21 02:17:48;;;;;;;;;28.25;24.75;;;;;9.07;63.74;101440.13;5096023;27;45545;-74
2023/02/21 02:20:31;;;;;;;;;34.50;28.00;;;;;9.04;63.90;101433.25;5093963;27;47298;-73
2023/02/21 02:23:30;;;;;;;;;29.75;28.25;;;;;9.02;63.74;101432.50;5095456;27;47245;-73
2023/02/21 02:26:17;;;;;;;;;31.25;28.75;;;;;9.02;63.77;101424.66;5094541;27;45582;-75
2023/02/21 02:28:48;;;;;;;;;40.00;34.25;;;;;9.02;63.87;101424.66;5095820;27;45587;-74
2023/02/21 02:31:17;;;;;;;;;25.75;25.00;;;;;9.04;64.00;101429.81;5095470;27;46396;-74
2023/02/21 02:37:09;;;;;;;;;28.50;28.00;;;;;9.00;63.54;101410.00;5095367;27;45538;-75
2023/02/21 02:39:43;;;;;;;;;26.75;23.25;;;;;9.07;63.62;101408.75;5095549;27;45576;-74
2023/02/21 02:42:21;;;;;;;;;23.50;23.00;;;;;9.08;63.73;101419.09;5095370;27;45882;-73
2023/02/21 02:44:56;;;;;;;;;28.25;25.50;;;;;9.09;63.66;101418.19;5094593;27;46336;-74
2023/02/21 02:47:28;;;;;;;;;28.75;24.00;;;;;9.08;63.71;101406.03;5095400;27;45848;-74
2023/02/21 02:53:19;;;;;;;;;24.50;22.00;;;;;9.06;63.69;101405.28;5095012;27;45951;-74
2023/02/21 02:55:51;;;;;;;;;27.75;25.75;;;;;9.02;63.62;101395.91;5110672;27;47069;-73
2023/02/21 02:58:21;;;;;;;;;27.50;23.00;;;;;9.01;63.76;101396.84;5095101;27;45512;-75
2023/02/21 03:01:12;;;;;;;;;31.75;28.50;;;;;9.01;63.49;101398.63;5094748;27;45611;-74
2023/02/21 03:10:34;;;;;;;;;29.25;24.50;;;;;9.03;63.94;101392.38;5072102;28;45756;-74
2023/02/21 03:13:16;;;;;;;;;28.25;24.75;;;;;9.04;63.48;101385.38;5072632;28;45600;-75
2023/02/21 03:15:51;;;;;;;;;34.25;29.50;;;;;9.05;63.66;101382.69;5072149;28;46502;-74
2023/02/21 03:21:48;;;;;;;;;26.25;22.00;;;;;9.02;64.07;101385.44;5031695;28;45700;-75
2023/02/21 03:24:17;;;;;;;;;33.25;26.25;;;;;8.99;64.13;101390.00;5032034;28;45768;-74
2023/02/21 03:26:47;;;;;;;;;28.25;24.25;;;;;8.95;64.17;101386.72;5048288;28;47367;-74
2023/02/21 03:29:14;;;;;;;;;35.75;27.75;;;;;8.89;64.32;101376.56;5031721;28;46450;-74
2023/02/21 03:31:47;;;;;;;;;27.00;25.50;;;;;8.88;64.43;101387.94;5031706;28;45766;-74
2023/02/21 03:37:40;;;;;;;;;31.00;28.25;;;;;8.83;64.36;101380.34;5031055;28;46182;-75
2023/02/21 03:40:09;;;;;;;;;34.25;28.00;;;;;8.81;64.37;101368.25;5039962;28;46192;-74
2023/02/21 03:42:35;;;;;;;;;32.00;26.75;;;;;8.64;64.22;101345.63;5071957;28;45673;-75
2023/02/21 03:45:00;;;;;;;;;34.50;28.25;;;;;8.83;64.26;101372.50;5071687;28;45790;-74
2023/02/21 03:47:26;;;;;;;;;23.50;19.25;;;;;8.84;64.29;101374.19;5071477;28;46836;-74
2023/02/21 03:53:13;;;;;;;;;33.00;28.25;;;;;8.84;64.29;101363.75;5071891;28;45713;-74
2023/02/21 03:55:38;;;;;;;;;29.00;27.75;;;;;8.90;64.04;101369.56;5071521;28;45950;-74
2023/02/21 03:58:04;;;;;;;;;36.00;31.50;;;;;8.90;64.40;101366.97;5079087;27;46786;-74
2023/02/21 04:00:29;;;;;;;;;38.50;32.75;;;;;8.89;64.33;101360.88;5094445;27;46192;-75
2023/02/21 04:02:55;;;;;;;;;35.25;33.75;;;;;8.87;64.23;101356.66;5094343;27;45612;-75
2023/02/21 04:08:42;;;;;;;;;40.50;35.00;;;;;8.91;64.57;101351.19;5093983;27;45935;-74
2023/02/21 04:11:07;;;;;;;;;43.50;37.50;;;;;8.85;64.43;101349.72;5094136;27;46547;-74
2023/02/21 04:13:33;;;;;;;;;43.00;38.00;;;;;8.90;64.25;101346.91;5098873;27;45570;-74
2023/02/21 04:15:58;;;;;;;;;53.50;43.75;;;;;8.92;64.18;101354.66;5095370;27;45736;-74
2023/02/21 04:18:23;;;;;;;;;44.25;39.50;;;;;8.93;64.28;101338.91;5094284;27;45560;-74
2023/02/21 04:24:11;;;;;;;;;56.00;45.25;;;;;8.88;64.59;101343.53;5094100;27;45696;-74
2023/02/21 04:26:37;;;;;;;;;40.25;36.25;;;;;8.93;64.60;101367.63;5094251;27;45857;-74
2023/02/21 04:29:03;;;;;;;;;37.75;32.00;;;;;8.93;64.51;101367.63;5094105;27;46451;-74
2023/02/21 04:31:29;;;;;;;;;35.75;31.00;;;;;8.92;64.30;101354.66;5094134;27;46054;-74
2023/02/21 04:33:54;;;;;;;;;29.00;26.50;;;;;8.90;64.32;101359.97;5094495;27;45676;-75
2023/02/21 04:39:41;;;;;;;;;38.50;34.75;;;;;8.88;64.41;101346.13;5094738;27;45588;-74
2023/02/21 04:42:06;;;;;;;;;35.25;34.25;;;;;8.86;64.22;101353.19;5094675;27;46950;-75
2023/02/21 04:44:32;;;;;;;;;39.50;34.50;;;;;8.77;64.36;101344.06;5094313;27;45595;-73
2023/02/21 04:46:57;;;;;;;;;42.50;36.75;;;;;8.83;64.38;101354.22;5094712;27;45776;-76
2023/02/21 04:49:26;;;;;;;;;38.75;32.25;;;;;8.76;64.33;101350.22;5097143;27;45497;-74
2023/02/21 04:55:14;;;;;;;;;37.25;31.25;;;;;8.73;64.35;101352.16;5096999;27;45741;-75
2023/02/21 04:57:39;;;;;;;;;41.50;33.75;;;;;8.74;64.18;101354.69;5097103;27;45524;-75
2023/02/21 05:00:06;;;;;;;;;32.75;30.00;;;;;8.70;64.32;101347.06;5096901;27;47174;-75
2023/02/21 05:02:32;;;;;;;;;36.25;32.00;;;;;8.64;64.15;101345.63;5095689;27;46149;-74
2023/02/21 05:04:57;;;;;;;;;40.50;35.75;;;;;8.72;64.17;101360.91;5096736;27;45675;-74
2023/02/21 05:10:45;;;;;;;;;38.25;33.50;;;;;8.65;64.32;101360.38;5096529;27;46048;-75
2023/02/21 05:13:11;;;;;;;;;40.25;36.25;;;;;8.60;64.14;101344.09;5097116;27;46762;-75
2023/02/21 05:15:37;;;;;;;;;39.50;33.25;;;;;8.63;64.48;101364.00;5096527;27;45487;-75
2023/02/21 05:18:02;;;;;;;;;42.50;37.75;;;;;8.54;64.52;101348.78;5097317;27;45502;-75
2023/02/21 05:20:27;;;;;;;;;14.50;7.25;;;;;8.59;64.36;101352.00;5095548;27;48897;-75
2023/02/21 05:22:54;;;;;;;;;39.00;35.50;;;;;8.54;64.27;101347.00;5097006;27;45556;-75
2023/02/21 05:25:21;;;;;;;;;38.00;31.50;;;;;8.54;64.27;101360.06;5096698;27;45600;-75
2023/02/21 05:27:47;;;;;;;;;36.25;32.50;;;;;8.52;64.36;101348.03;5097294;27;45703;-76
2023/02/21 05:30:16;;;;;;;;;32.50;31.50;;;;;8.53;64.30;101358.38;5096539;27;45663;-75
2023/02/21 05:32:41;;;;;;;;;39.75;34.50;;;;;8.52;64.38;101341.03;5096830;27;45516;-75
2023/02/21 05:35:09;;;;;;;;;36.75;33.75;;;;;8.53;64.20;101345.31;5096333;27;45588;-76
2023/02/21 05:40:56;;;;;;;;;43.00;37.50;;;;;8.54;64.24;101333.97;5096423;27;46137;-75
2023/02/21 05:43:21;;;;;;;;;34.75;28.25;;;;;8.57;64.38;101344.25;5096952;27;46206;-75
2023/02/21 05:45:47;;;;;;;;;44.50;35.25;;;;;8.57;64.35;101333.81;5096285;27;45599;-77
2023/02/21 05:48:12;;;;;;;;;38.50;35.00;;;;;8.53;64.23;101321.00;5097055;27;45500;-75
2023/02/21 05:50:38;;;;;;;;;46.00;39.50;;;;;8.60;64.14;101324.97;5096384;27;47198;-75
2023/02/21 05:53:04;;;;;;;;;36.50;32.25;;;;;8.61;64.34;101326.66;5096307;27;46540;-75
2023/02/21 05:55:29;;;;;;;;;37.25;33.25;;;;;8.55;64.21;101306.06;5096421;27;45670;-76
2023/02/21 05:57:55;;;;;;;;;46.25;40.75;;;;;8.57;64.32;101306.84;5096948;27;45735;-75
2023/02/21 06:00:28;;;;;;;;;37.75;33.25;;;;;8.64;63.89;101313.44;5096712;27;45740;-77
2023/02/21 06:02:54;;;;;;;;;39.25;35.00;;;;;8.58;64.26;101305.94;5096521;27;46435;-75
2023/02/21 06:05:20;;;;;;;;;42.25;36.25;;;;;8.65;64.28;101320.34;5096495;27;45677;-75
2023/02/21 06:11:07;;;;;;;;;43.25;37.75;;;;;8.66;64.31;101319.44;5096812;27;45552;-75
2023/02/21 06:13:32;;;;;;;;;39.75;38.00;;;;;8.59;64.22;101302.38;5096496;27;46063;-75
2023/02/21 06:15:58;;;;;;;;;51.00;40.50;;;;;8.64;64.24;101305.59;5096374;27;45638;-76
2023/02/21 06:18:23;;;;;;;;;53.25;43.00;;;;;8.61;64.39;101297.94;5097741;27;45541;-76
2023/02/21 06:20:48;;;;;;;;;56.50;42.25;;;;;8.60;64.17;101291.84;5096489;27;46290;-75
2023/02/21 06:26:36;;;;;;;;;54.25;44.75;;;;;8.65;64.42;101310.75;5096063;27;45521;-75
2023/02/21 06:29:06;;;;;;;;;54.50;45.00;;;;;8.65;64.31;101300.28;5095789;27;45803;-75
2023/02/21 06:31:31;;;;;;;;;51.50;42.50;;;;;8.62;64.31;101289.19;5096637;27;46457;-75
2023/02/21 06:33:57;;;;;;;;;57.50;46.25;;;;;8.66;64.60;101285.47;5096027;27;45970;-75
2023/02/21 06:36:25;;;;;;;;;58.50;47.00;;;;;8.66;64.30;101290.69;5095722;27;45614;-74
2023/02/21 06:38:53;;;;;;;;;56.50;43.25;;;;;8.65;64.81;101284.63;5095662;27;45736;-75
2023/02/21 06:41:25;;;;;;;;;56.25;47.75;;;;;8.65;64.86;101283.78;5095548;27;46517;-75
2023/02/21 06:43:52;;;;;;;;;54.75;43.75;;;;;8.57;64.76;101273.75;5095519;27;46160;-75
2023/02/21 06:46:19;;;;;;;;;60.00;44.25;;;;;8.52;64.60;101267.06;5095002;27;46080;-75
2023/02/21 06:48:45;;;;;;;;;58.00;49.00;;;;;8.63;64.57;101280.41;5095073;27;46009;-74
2023/02/21 06:51:13;;;;;;;;;62.25;47.25;;;;;8.64;64.64;101279.47;5094190;27;47292;-74
2023/02/21 06:53:42;;;;;;;;;63.25;49.00;;;;;8.58;64.40;101270.22;5095377;27;46225;-75
2023/02/21 06:56:08;;;;;;;;;51.75;40.75;;;;;8.67;64.55;101276.72;5095156;27;45887;-73
2023/02/21 06:58:34;;;;;;;;;59.50;47.00;;;;;8.69;64.63;101272.28;5095097;27;45787;-75
2023/02/21 07:01:00;;;;;;;;;58.00;45.75;;;;;8.70;64.59;101274.78;5109911;27;47972;-74
2023/02/21 07:03:26;;;;;;;;;62.50;48.50;;;;;8.65;64.53;101263.72;5095253;27;45650;-74
2023/02/21 07:05:51;;;;;;;;;58.50;45.75;;;;;8.71;64.64;101270.41;5095077;27;45495;-75
2023/02/21 07:11:39;;;;;;;;;54.25;45.25;;;;;8.75;64.63;101274.53;5094073;27;45686;-74
2023/02/21 07:14:04;;;;;;;;;52.25;42.25;;;;;8.74;64.52;101270.25;5094754;27;45984;-75
2023/02/21 07:16:30;;;;;;;;;60.75;48.00;;;;;8.77;64.68;101275.31;5095121;27;45698;-75
2023/02/21 07:18:55;;;;;;;;;50.25;38.75;;;;;8.76;64.65;101277.06;5094825;27;45783;-72
2023/02/21 07:21:21;;;;;;;;;58.50;44.25;;;;;8.76;64.50;101264.00;5110507;27;48307;-74
2023/02/21 07:27:08;;;;;;;;;58.75;45.00;;;;;8.83;64.54;101273.22;5094771;27;45977;-74
2023/02/21 07:29:33;;;;;;;;;58.00;46.25;;;;;8.85;64.43;101271.34;5094922;27;45840;-75
2023/02/21 07:31:59;;;;;;;;;52.25;41.50;;;;;8.85;64.66;101263.50;5094914;27;46950;-74
2023/02/21 07:34:24;;;;;;;;;72.00;57.00;;;;;8.89;64.51;101271.22;5094743;27;45626;-73
2023/02/21 07:36:49;;;;;;;;;58.75;47.25;;;;;8.89;64.46;101272.06;5094233;27;45645;-73
2023/02/21 07:39:15;;;;;;;;;66.00;53.25;;;;;8.92;64.72;101271.03;5094654;27;45621;-73
2023/02/21 07:41:40;;;;;;;;;59.25;45.50;;;;;8.89;64.57;101245.06;5094233;27;46321;-73
2023/02/21 07:44:06;;;;;;;;;58.00;49.00;;;;;8.99;65.20;101260.19;5094676;27;45757;-74
2023/02/21 07:46:33;;;;;;;;;70.25;54.00;;;;;9.03;65.14;101263.44;5094780;27;45926;-72
2023/02/21 07:48:59;;;;;;;;;61.50;48.25;;;;;9.04;64.97;101268.59;5094704;27;45792;-74
2023/02/21 07:51:28;;;;;;;;;80.50;60.00;;;;;9.05;64.98;101265.06;5094380;27;47212;-73
2023/02/21 07:57:16;;;;;;;;;78.00;58.25;;;;;9.06;64.84;101256.31;5095098;27;45653;-74
2023/02/21 07:59:42;;;;;;;;;69.75;52.75;;;;;9.09;64.72;101258.75;5095398;27;45741;-72
2023/02/21 08:02:11;;;;;;;;;61.00;48.50;;;;;9.18;64.76;101260.00;5094547;27;46220;-74
2023/02/21 08:04:36;;;;;;;;;61.75;50.50;;;;;9.12;64.84;101247.28;5094393;27;46129;-74
2023/02/21 08:13:08;;;;;;;;;61.00;47.75;;;;;9.25;64.40;101251.75;5094544;27;45777;-74
2023/02/21 08:15:33;;;;;;;;;64.50;51.25;;;;;9.31;64.25;101247.94;5094490;27;45973;-75
2023/02/21 08:17:59;;;;;;;;;63.25;51.00;;;;;9.32;64.53;101252.25;5095823;27;45731;-74
2023/02/21 08:20:24;;;;;;;;;66.50;51.50;;;;;9.35;64.32;101253.84;5095669;27;45727;-73
2023/02/21 08:22:50;;;;;;;;;61.50;50.50;;;;;9.39;64.28;101247.53;5095867;27;47688;-75
2023/02/21 08:25:16;;;;;;;;;67.25;51.25;;;;;9.37;64.11;101242.38;5097855;27;45635;-72
2023/02/21 08:27:42;;;;;;;;;60.75;49.50;;;;;9.37;64.22;101239.78;5097997;27;45544;-73
2023/02/21 08:30:15;;;;;;;;;62.00;49.25;;;;;9.45;64.33;101245.41;5098036;27;45988;-74
2023/02/21 08:32:42;;;;;;;;;68.00;53.00;;;;;9.49;64.03;101244.31;5097814;27;47537;-73
2023/02/21 08:35:13;;;;;;;;;65.50;52.00;;;;;9.51;64.04;101241.59;5098025;27;46082;-74
2023/02/21 08:37:44;;;;;;;;;67.25;55.50;;;;;9.54;64.00;101241.44;5097990;27;45843;-73
2023/02/21 08:40:10;;;;;;;;;63.50;50.25;;;;;9.57;63.88;101247.34;5096333;27;45786;-74
2023/02/21 08:42:35;;;;;;;;;63.00;49.75;;;;;9.56;63.98;101240.41;5097162;27;46634;-73
2023/02/21 08:45:01;;;;;;;;;67.25;52.50;;;;;9.64;63.79;101256.53;5097484;27;45746;-72
2023/02/21 08:47:26;;;;;;;;;65.25;52.25;;;;;9.63;64.05;101240.91;5097478;27;45603;-73
2023/02/21 08:49:51;;;;;;;;;63.50;50.25;;;;;9.69;63.90;101245.78;5097304;27;45521;-73
2023/02/21 08:52:19;;;;;;;;;61.75;50.00;;;;;9.74;63.90;101245.53;5097253;27;45504;-72
2023/02/21 08:58:10;;;;;;;;;62.25;47.25;;;;;9.80;63.84;101235.56;5097243;27;45960;-73
2023/02/21 09:00:35;;;;;;;;;63.50;52.00;;;;;9.70;63.84;101221.31;5097087;27;45630;-75
2023/02/21 09:03:01;;;;;;;;;58.50;49.00;;;;;9.89;64.05;101242.03;5097079;27;46333;-74
2023/02/21 09:05:29;;;;;;;;;63.75;48.00;;;;;9.92;64.12;101240.09;5097178;27;45746;-76
2023/02/21 09:08:00;;;;;;;;;66.75;52.00;;;;;9.94;63.84;101232.13;5096872;27;45931;-74
2023/02/21 09:10:28;;;;;;;;;62.00;50.25;;;;;10.00;64.06;101237.84;5097115;27;45592;-74
2023/02/21 09:12:53;;;;;;;;;53.75;44.00;;;;;10.04;63.76;101241.97;5096804;27;45796;-73
2023/02/21 09:15:19;;;;;;;;;60.50;47.50;;;;;10.09;63.60;101241.72;5096595;27;46034;-73
2023/02/21 09:17:44;;;;;;;;;58.00;42.00;;;;;10.15;63.93;101251.00;5096663;27;45649;-73
2023/02/21 09:20:16;;;;;;;;;65.25;47.25;;;;;10.17;63.69;101242.13;5096523;27;45742;-72
2023/02/21 09:22:43;;;;;;;;;61.25;47.75;;;;;10.15;63.74;101235.28;5096852;27;46301;-73
2023/02/21 09:28:31;;;;;;;;;60.50;48.75;;;;;10.31;63.66;101238.72;5096661;27;45637;-73
2023/02/21 09:30:56;;;;;;;;;54.75;44.25;;;;;10.36;63.47;101236.66;5095160;27;45686;-73
2023/02/21 09:33:21;;;;;;;;;51.00;42.25;;;;;10.39;63.45;101229.44;5095782;27;47799;-74
2023/02/21 09:35:47;;;;;;;;;58.50;46.75;;;;;10.43;63.55;101235.31;5096400;27;45892;-73
2023/02/21 09:38:12;;;;;;;;;51.00;41.00;;;;;10.45;63.42;101229.06;5096049;27;45591;-73
2023/02/21 09:40:37;;;;;;;;;60.25;46.50;;;;;10.52;63.42;101232.16;5096636;27;45506;-72
2023/02/21 09:43:08;;;;;;;;;54.33;41.00;;;;;10.54;63.31;101227.66;5096678;27;45608;-73
2023/02/21 09:45:36;;;;;;;;;47.00;41.00;;;;;10.60;63.30;101226.44;5096169;27;47403;-73
2023/02/21 09:48:10;;;;;;;;;56.25;43.75;;;;;10.65;63.36;101234.88;5097298;27;45600;-74
2023/02/21 09:50:43;;;;;;;;;48.25;40.00;;;;;10.67;63.30;101223.38;5096729;27;45915;-73
2023/02/21 09:53:14;;;;;;;;;49.00;40.75;;;;;10.77;63.27;101228.88;5096720;27;46581;-73
2023/02/21 09:55:40;;;;;;;;;45.75;39.50;;;;;10.82;63.14;101226.81;5095919;27;46292;-73
2023/02/21 09:58:12;;;;;;;;;52.50;40.25;;;;;10.84;62.91;101224.94;5096467;27;45581;-73
2023/02/21 10:00:38;;;;;;;;;42.50;37.75;;;;;10.87;62.96;101225.59;5096257;27;45611;-73
2023/02/21 10:03:31;;;;;;;;;45.00;37.25;;;;;10.94;62.85;101226.91;5094772;27;46419;-73
2023/02/21 10:06:19;;;;;;;;;44.25;38.50;;;;;10.97;62.87;101228.47;5095895;27;46026;-73
2023/02/21 10:09:23;;;;;;;;;42.50;35.00;;;;;11.01;62.90;101226.50;5095718;27;45923;-74
2023/02/21 10:11:58;;;;;;;;;42.50;35.25;;;;;11.09;62.81;101230.31;5096485;27;45802;-73
2023/02/21 10:14:53;;;;;;;;;45.50;34.75;;;;;11.15;62.76;101232.56;5096364;27;45632;-72
2023/02/21 10:17:30;;;;;;;;;36.50;33.75;;;;;11.19;62.68;101214.84;5096077;27;46053;-72
2023/02/21 10:20:01;;;;;;;;;39.25;33.75;;;;;11.28;62.73;101228.19;5094272;27;45494;-72
2023/02/21 10:22:32;;;;;;;;;40.50;36.25;;;;;11.34;62.58;101232.22;5096342;27;45560;-73
2023/02/21 10:24:58;;;;;;;;;38.75;33.00;;;;;11.39;62.44;101226.69;5111202;27;47864;-73
2023/02/21 10:27:29;;;;;;;;;39.25;32.00;;;;;11.46;62.48;101223.56;5095884;27;45970;-74
2023/02/21 10:30:09;;;;;;;;;45.50;41.00;;;;;11.53;62.39;101230.09;5096373;27;45840;-73
2023/02/21 10:32:36;;;;;;;;;47.00;38.75;;;;;11.57;62.29;101217.63;5096145;27;45622;-73
2023/02/21 10:35:03;;;;;;;;;40.50;34.75;;;;;11.68;62.35;101226.47;5095811;27;46296;-73
2023/02/21 10:37:51;;;;;;;;;47.75;38.00;;;;;11.75;62.08;101227.78;5094499;27;47988;-72
2023/02/21 10:40:34;;;;;;;;;49.00;41.25;;;;;11.82;62.08;101225.59;5095366;27;45663;-72
2023/02/21 10:43:11;;;;;;;;;48.75;42.50;;;;;11.89;61.95;101212.88;5095884;27;45520;-73
2023/02/21 10:46:03;;;;;;;;;52.25;41.50;;;;;11.97;61.72;101211.47;5093948;27;46641;-73
2023/02/21 10:48:35;;;;;;;;;53.25;40.00;;;;;12.05;61.36;101211.75;5095517;27;45770;-74
2023/02/21 10:51:10;;;;;;;;;45.75;38.50;;;;;12.11;61.49;101210.50;5095208;27;45825;-74
2023/02/21 10:56:42;;;;;;;;;47.50;38.50;;;;;12.25;61.13;101205.19;5095039;27;46120;-73
2023/02/21 10:59:08;;;;;;;;;49.75;39.75;;;;;12.32;61.27;101198.53;5094837;27;46139;-74
2023/02/21 11:01:42;;;;;;;;;45.75;38.00;;;;;12.39;61.10;101191.06;5094955;27;45905;-74
2023/02/21 11:04:15;;;;;;;;;28.75;23.50;;;;;12.44;61.04;101200.31;5095009;27;45595;-74
2023/02/21 11:06:45;;;;;;;;;43.25;38.75;;;;;12.47;60.89;101191.41;5095011;27;46503;-73
2023/02/21 11:12:32;;;;;;;;;51.25;41.25;;;;;12.70;60.85;101187.97;5094972;27;45590;-72
2023/02/21 11:14:57;;;;;;;;;41.50;36.75;;;;;12.80;60.33;101193.41;5095134;27;45606;-74
2023/02/21 11:17:27;;;;;;;;;45.00;37.67;;;;;12.86;60.30;101185.94;5094680;27;47259;-73
2023/02/21 11:19:59;;;;;;;;;52.25;38.00;;;;;12.95;60.32;101187.94;5094330;27;47395;-74
2023/02/21 11:22:33;;;;;;;;;40.00;35.25;;;;;13.05;60.18;101172.31;5095045;27;45599;-74
2023/02/21 11:28:21;;;;;;;;;41.00;37.00;;;;;13.20;59.82;101151.97;5094521;27;45947;-73
2023/02/21 11:31:09;;;;;;;;;48.75;41.25;;;;;13.32;59.69;101165.09;5094717;27;47098;-72
2023/02/21 11:33:49;;;;;;;;;40.25;35.75;;;;;13.38;59.33;101151.47;5095142;27;45607;-74
2023/02/21 11:36:17;;;;;;;;;40.00;33.25;;;;;13.49;59.09;101144.56;5095238;27;45752;-73
2023/02/21 11:38:57;;;;;;;;;36.75;33.00;;;;;13.56;59.27;101141.34;5094683;27;47567;-73
2023/02/21 11:44:46;;;;;;;;;37.00;32.50;;;;;13.70;58.71;101130.63;5094112;27;45541;-74
2023/02/21 11:47:38;;;;;;;;;41.25;34.25;;;;;13.78;58.72;101133.50;5094472;27;45704;-74
2023/02/21 11:50:06;;;;;;;;;38.50;32.50;;;;;13.86;57.72;101130.31;5094249;27;47660;-74
2023/02/21 11:52:43;;;;;;;;;36.25;34.00;;;;;13.94;57.85;101120.00;5094660;27;45687;-73
2023/02/21 11:55:16;;;;;;;;;36.75;32.25;;;;;14.04;57.91;101113.06;5093852;27;45765;-73
2023/02/21 11:58:12;;;;;;;;;36.00;32.75;;;;;14.16;57.49;101109.47;5094253;27;45517;-74
2023/02/21 12:01:01;;;;;;;;;41.00;34.50;;;;;14.24;57.57;101101.84;5071434;27;46519;-73
2023/02/21 12:03:35;;;;;;;;;36.50;33.25;;;;;14.34;56.93;101101.94;5071809;27;46032;-74
2023/02/21 12:06:10;;;;;;;;;35.00;34.00;;;;;14.41;56.93;101104.97;5071856;28;45888;-74
2023/02/21 12:08:41;;;;;;;;;31.50;29.75;;;;;14.48;56.70;101092.94;5071535;28;45603;-73
2023/02/21 12:11:35;;;;;;;;;31.75;29.75;;;;;14.54;56.62;101085.41;5054081;28;47909;-73
2023/02/21 12:14:37;;;;;;;;;33.00;30.50;;;;;14.58;56.67;101076.28;5071375;28;45899;-72
2023/02/21 12:17:21;;;;;;;;;28.25;23.50;;;;;14.63;56.44;101070.63;5071152;28;45853;-73
2023/02/21 12:19:52;;;;;;;;;31.75;29.50;;;;;14.67;56.40;101064.16;5071657;28;45656;-73
2023/02/21 12:22:52;;;;;;;;;28.50;24.75;;;;;14.73;55.54;101065.47;5071334;28;46660;-73
2023/02/21 12:28:57;;;;;;;;;24.75;21.00;;;;;14.86;55.10;101051.13;5070962;28;45918;-73
2023/02/21 12:32:13;;;;;;;;;21.25;21.00;;;;;14.92;55.02;101041.88;5071714;28;45703;-73
2023/02/21 12:34:59;;;;;;;;;23.25;22.50;;;;;14.97;55.05;101039.69;5031286;28;46874;-73
2023/02/21 12:37:30;;;;;;;;;22.75;21.25;;;;;15.02;54.70;101034.88;5048783;28;46658;-75
2023/02/21 12:40:07;;;;;;;;;25.50;22.75;;;;;15.05;54.13;101032.00;5070841;28;45895;-72
2023/02/21 12:43:07;;;;;;;;;24.75;24.00;;;;;15.11;54.37;101027.03;5070318;28;45783;-74
2023/02/21 12:45:41;;;;;;;;;27.75;25.00;;;;;15.18;54.01;101019.44;5069544;28;46705;-73
2023/02/21 12:48:49;;;;;;;;;32.75;25.25;;;;;15.25;54.22;101017.97;5069825;28;46225;-74
2023/02/21 12:51:20;;;;;;;;;29.50;26.75;;;;;15.29;54.82;101008.81;5049242;28;46036;-74
2023/02/21 12:53:53;;;;;;;;;28.00;26.50;;;;;15.34;53.94;100997.88;5049616;28;45701;-74
2023/02/21 12:56:32;;;;;;;;;36.00;30.00;;;;;15.39;53.76;101000.97;5032052;28;47580;-73
2023/02/21 12:59:02;;;;;;;;;28.75;26.00;;;;;15.42;53.81;100993.63;5049085;28;47193;-73
2023/02/21 13:01:32;;;;;;;;;31.00;27.00;;;;;15.40;53.23;100970.94;5048828;28;45724;-73
2023/02/21 13:04:25;;;;;;;;;33.00;29.25;;;;;15.49;53.23;100975.47;5049431;28;45779;-73
2023/02/21 13:06:57;;;;;;;;;25.00;23.00;;;;;15.47;53.09;100966.81;5049124;28;46417;-72
2023/02/21 13:09:34;;;;;;;;;32.75;31.00;;;;;15.53;53.02;100977.75;5043814;27;47118;-73
2023/02/21 13:12:06;;;;;;;;;34.75;31.25;;;;;15.59;53.39;100972.91;5092984;27;45918;-73
2023/02/21 13:14:51;;;;;;;;;30.75;26.50;;;;;15.61;52.92;100968.28;5094046;27;45813;-73
2023/02/21 13:17:18;;;;;;;;;29.00;25.50;;;;;15.60;53.04;100962.19;5093271;27;46482;-72
2023/02/21 13:19:53;;;;;;;;;33.50;27.25;;;;;15.67;52.93;100967.78;5093234;27;47355;-74
2023/02/21 13:22:41;;;;;;;;;33.00;29.75;;;;;15.68;52.95;100950.97;5093995;27;45751;-74
2023/02/21 13:28:30;;;;;;;;;30.75;26.50;;;;;15.78;52.41;100950.03;5094569;27;46121;-73
2023/02/21 13:31:01;;;;;;;;;27.25;24.00;;;;;15.81;53.04;100941.84;5095678;27;47215;-73
2023/02/21 13:33:43;;;;;;;;;28.50;25.75;;;;;15.82;52.69;100930.28;5095970;27;45773;-74
2023/02/21 13:36:20;;;;;;;;;30.00;27.50;;;;;15.84;52.59;100933.63;5095990;27;45780;-73
2023/02/21 13:38:58;;;;;;;;;32.50;29.25;;;;;15.85;52.46;100927.38;5095647;27;46450;-72
2023/02/21 13:44:49;;;;;;;;;27.75;25.75;;;;;15.92;52.18;100925.03;5094942;27;45482;-73
2023/02/21 13:47:19;;;;;;;;;23.25;22.25;;;;;15.90;52.14;100906.69;5095526;27;45932;-74
2023/02/21 13:49:47;;;;;;;;;24.25;21.25;;;;;16.01;51.30;100912.81;5094518;27;47631;-73
2023/02/21 13:52:18;;;;;;;;;20.25;19.50;;;;;16.05;51.26;100903.63;5094894;27;46388;-73
2023/02/21 13:55:12;;;;;;;;;27.25;23.75;;;;;16.08;51.47;100898.09;5095160;27;46128;-73
2023/02/21 14:01:13;;;;;;;;;28.00;25.75;;;;;16.16;51.58;100880.56;5095138;27;45702;-72
2023/02/21 14:03:39;;;;;;;;;27.50;24.25;;;;;16.18;50.87;100880.44;5093515;27;47202;-73
2023/02/21 14:06:07;;;;;;;;;26.00;24.00;;;;;16.21;51.38;100885.41;5095488;27;45730;-74
2023/02/21 14:08:32;;;;;;;;;18.25;18.25;;;;;16.25;50.88;100877.06;5095207;27;45649;-73
2023/02/21 14:11:03;;;;;;;;;25.75;22.00;;;;;16.27;51.01;100877.78;5093103;27;47601;-72
2023/02/21 14:13:41;;;;;;;;;23.00;21.00;;;;;16.29;50.35;100867.06;5093568;27;48041;-74
2023/02/21 14:16:06;;;;;;;;;26.75;22.50;;;;;16.32;50.27;100869.44;5094699;27;45758;-73
2023/02/21 14:18:44;;;;;;;;;26.33;22.67;;;;;16.30;49.94;100858.16;5095218;27;45579;-73
2023/02/21 14:21:16;;;;;;;;;23.25;21.00;;;;;16.38;50.09;100863.56;5094412;27;46476;-74
2023/02/21 14:23:45;;;;;;;;;20.75;19.00;;;;;16.43;50.33;100861.34;5094947;27;45511;-73
2023/02/21 14:26:49;;;;;;;;;27.00;23.00;;;;;16.48;49.97;100856.47;5094817;27;45591;-73
2023/02/21 14:29:40;;;;;;;;;19.50;18.75;;;;;16.53;50.29;100845.47;5094830;27;45989;-73
2023/02/21 14:32:08;;;;;;;;;20.25;19.00;;;;;16.57;49.97;100841.59;5094409;27;46358;-73
2023/02/21 14:34:45;;;;;;;;;22.00;20.50;;;;;16.60;49.39;100836.88;5094646;27;46472;-73
2023/02/21 14:37:29;;;;;;;;;23.50;21.75;;;;;16.64;49.79;100834.75;5094773;27;45633;-74
2023/02/21 14:40:01;;;;;;;;;22.75;22.25;;;;;16.69;49.65;100836.00;5094498;27;46032;-74
2023/02/21 14:42:53;;;;;;;;;20.75;18.25;;;;;16.72;49.02;100827.78;5093478;27;46285;-73
2023/02/21 14:45:34;;;;;;;;;19.75;17.50;;;;;16.75;49.17;100830.13;5094505;27;45931;-73
2023/02/21 14:47:59;;;;;;;;;22.75;20.25;;;;;16.78;49.18;100834.31;5094696;27;45835;-72
2023/02/21 14:50:42;;;;;;;;;24.67;22.00;;;;;16.82;49.46;100832.22;5094470;27;46061;-74
2023/02/21 14:53:22;;;;;;;;;21.00;19.25;;;;;16.84;49.48;100822.34;5094128;27;46355;-72
2023/02/21 14:59:46;;;;;;;;;20.50;18.75;;;;;16.89;48.87;100820.09;5093947;27;45668;-73
2023/02/21 15:02:25;;;;;;;;;17.00;15.25;;;;;16.91;48.85;100818.94;5094234;27;45934;-73
2023/02/21 15:05:03;;;;;;;;;18.75;17.75;;;;;16.94;48.29;100823.97;5093842;27;46482;-74
2023/02/21 15:07:54;;;;;;;;;21.00;19.00;;;;;16.94;48.36;100813.38;5109665;27;47384;-73
2023/02/21 15:10:20;;;;;;;;;18.25;17.50;;;;;17.01;48.84;100816.25;5093877;27;45710;-74
2023/02/21 15:16:12;;;;;;;;;16.50;15.00;;;;;17.08;48.31;100814.72;5093249;27;46130;-74
2023/02/21 15:18:56;;;;;;;;;22.75;20.75;;;;;17.13;48.75;100813.28;5093689;27;46173;-74
2023/02/21 15:21:22;;;;;;;;;24.00;22.00;;;;;17.15;48.46;100808.69;5093956;27;45682;-73
2023/02/21 15:24:00;;;;;;;;;22.75;20.25;;;;;17.24;48.15;100812.25;5093834;27;45640;-74
2023/02/21 15:26:30;;;;;;;;;28.00;25.00;;;;;17.28;48.24;100808.34;5093812;27;45910;-73
2023/02/21 15:29:09;;;;;;;;;25.00;23.50;;;;;17.32;48.43;100804.44;5093456;27;46462;-74
2023/02/21 15:31:49;;;;;;;;;25.75;22.75;;;;;17.40;48.41;100799.22;5093031;27;45640;-73
2023/02/21 15:34:41;;;;;;;;;24.75;22.00;;;;;17.46;47.94;100795.97;5093541;27;45841;-72
2023/02/21 15:37:22;;;;;;;;;26.75;22.50;;;;;17.56;48.12;100794.09;5090387;27;46430;-74